首页
METAR-TAF:

METAR-TAF

机场 :

萨达尔·瓦拉巴伊·帕特尔国际机场

艾哈迈达巴德, 印度

纬度: 23-04N, 经度: 072-38E, 海拔: 55米

当前天气观测

该预报发布于42分钟前的20:30 UTC
风速5节,风向东南
温度 31°C
湿度 63%
气压 1000 hPa
能見度: 4000
少量云层高于2000英尺
散云层高于8000英尺
霾,

METAR: VAAH 222030Z 14005KT 4000 HZ FEW020 SCT080 31/23 Q1000 NOSIG

时间: 02:42 (21:12 UTC)

预报

该预报发布于1小时和12分钟前的20:00 UTC
预报有效从22日的 21点(UTC)到 23日的 06点(UTC)
风速10节,风向东转东南
能見度: 4000
散云层高于2000英尺
多云层高于8000英尺
霾, 烟
成为
从 22日的 22点(UTC)到 22日的 24点(UTC)
风速6节,风向
成为
从 23日的 01点(UTC)到 23日的 03点(UTC)
风速6节,风向西转西南
成为
从 23日的 04点(UTC)到 23日的 06点(UTC)
能見度: 5000
散云层高于2000英尺
散云层高于2500英尺
烟,

TAF: VAAH 222000Z 2221/2306 12010KT 4000 HZ FU SCT020 BKN080 BECMG 2222/2224 19006KT HZ BECMG 2301/2303 25006KT BECMG 2304/2306 5000 FU SCT020 SCT025

超过4000个机场的气象观测和天气预报(METAR&TAF报告)。

可查询的气象台以黄色和红色小点在地图上表示。

将鼠标移到小点上方,可查看气象台名称。

然后点击查看天气观测和预报。

如需切换地图:点击带黑十字的绿色按钮放大地图;点击带横线的绿色按钮缩小地图;或者点击绿色箭头查看邻近地区的地图。


METAR-TAF: